Nearby METAR Reports

KBIS - Bismarck, North Dakota, USA
Distance from station: S 10mi, 15km
Updated: Sun, 02-Oct-2022 5:52pm CDT
Clear
Clear
 Wind from WNW
Wind: WNW 5 mph , 7 km/h
Temperature: 72°F , 22°C
Dew Point: 54°F , 12°C
Humidity: 53%
Barometer: 30.04 inHg , 1017.3 hPa
Clouds: Clear
Visibility: 10 miles , 16 km
2022/10/02 22:52 KBIS 022252Z AUTO 29004KT 10SM CLR 22/12 A3004 RMK AO2 SLP172 T02170122
KDIK - Dickinson, North Dakota, USA
Distance from station: W 95mi, 154km
Updated: Sun, 02-Oct-2022 5:56pm CDT
Mostly cloudy
Mostly cloudy
 Wind from NE
Wind: NE 10 mph , 17 km/h
Temperature: 70°F , 21°C
Dew Point: 48°F , 9°C
Humidity: 46%
Barometer: 30.03 inHg , 1016.9 hPa
Clouds: Mostly cloudy
Visibility: 10 miles , 16 km
Cloud details: Mostly cloudy 10000 ft
2022/10/02 22:56 KDIK 022256Z AUTO 05009KT 10SM BKN100 21/09 A3003 RMK AO2 SLP163 T02110094
 
KGFK - Grand Forks, North Dakota, USA
Distance from station: NNW 76mi, 123km
Updated: Sun, 02-Oct-2022 5:53pm CDT
Mostly cloudy
Mostly cloudy
 Wind from S
Wind: S 17 mph , 28 km/h, Gust: 26 mph , 43 km/h
Temperature: 70°F , 21°C
Dew Point: 50°F , 10°C
Humidity: 50%
Barometer: 30.11 inHg , 1019.6 hPa
Clouds: Mostly cloudy
Visibility: 10 miles , 16 km
Cloud details: Partly cloudy 5000 ft
Mostly cloudy 10000 ft
2022/10/02 22:53 KGFK 022253Z 17015G23KT 10SM SCT050 BKN100 21/10 A3011 RMK AO2 SLP198 T02110100
KXWA - Williston, North Dakota, USA
Distance from station: NNW 2mi, 2km
Updated: Sun, 02-Oct-2022 5:51pm CDT
Clear
Clear
 Wind from NNE
Wind: NNE 7 mph , 11 km/h
Temperature: 63°F , 17°C
Dew Point: 48°F , 9°C
Humidity: 59%
Barometer: 30.08 inHg , 1018.6 hPa
Clouds: Clear
Visibility: 10 miles , 16 km
2022/10/02 22:51 KXWA 022251Z AUTO 03006KT 10SM CLR 17/09 A3008 RMK AO2 SLP196 T01670094
 
KFAR - Fargo, North Dakota, USA
Distance from station: NNW 4mi, 7km
Updated: Sun, 02-Oct-2022 5:53pm CDT
Few Clouds
Few Clouds
 Wind from SSE
Wind: SSE 15 mph , 24 km/h, Gust: 25 mph , 41 km/h
Temperature: 70°F , 21°C
Dew Point: 45°F , 7°C
Humidity: 40%
Barometer: 30.13 inHg , 1020.3 hPa
Clouds: Few Clouds
Visibility: 10 miles , 16 km
Cloud details: Few Clouds 10000 ft
2022/10/02 22:53 KFAR 022253Z 15013G22KT 10SM FEW100 21/07 A3013 RMK AO2 SLP205 T02060072
KMOT - Minot, North Dakota, USA
Distance from station: E 109mi, 175km
Updated: Sun, 02-Oct-2022 5:54pm CDT
Clear
Clear
 Wind from ENE
Wind: ENE 6 mph , 9 km/h
Temperature: 64°F , 18°C
Dew Point: 50°F , 10°C
Humidity: 60%
Barometer: 30.06 inHg , 1017.9 hPa
Clouds: Clear
Visibility: 10 miles , 16 km
2022/10/02 22:54 KMOT 022254Z 07005KT 10SM CLR 18/10 A3006 RMK AO2 SLP185 T01780100